sensor_id;sensor_type;location;lat;lon;timestamp;pressure;altitude;pressure_sealevel;temperature;humidity
15880;BME280;61999;51.514;14.614;2023-06-14T00:00:40;100026.25;;;9.28;40.42
15880;BME280;61999;51.514;14.614;2023-06-14T00:03:11;100016.81;;;9.26;40.52
15880;BME280;61999;51.514;14.614;2023-06-14T00:05:44;100014.75;;;9.18;41.03
15880;BME280;61999;51.514;14.614;2023-06-14T00:08:14;100023.56;;;9.17;41.05
15880;BME280;61999;51.514;14.614;2023-06-14T00:10:42;100025.59;;;9.13;41.08
15880;BME280;61999;51.514;14.614;2023-06-14T00:13:10;100024.88;;;9.11;41.49
15880;BME280;61999;51.514;14.614;2023-06-14T00:15:38;100023.41;;;9.07;41.28
15880;BME280;61999;51.514;14.614;2023-06-14T00:18:06;100025.31;;;9.05;41.55
15880;BME280;61999;51.514;14.614;2023-06-14T00:20:37;100025.66;;;9.01;41.74
15880;BME280;61999;51.514;14.614;2023-06-14T00:23:06;100024.09;;;8.98;41.80
15880;BME280;61999;51.514;14.614;2023-06-14T00:25:34;100020.00;;;8.94;41.60
15880;BME280;61999;51.514;14.614;2023-06-14T00:28:02;100021.94;;;8.92;42.06
15880;BME280;61999;51.514;14.614;2023-06-14T00:30:30;100024.03;;;8.87;42.46
15880;BME280;61999;51.514;14.614;2023-06-14T00:32:59;100028.78;;;8.82;42.49
15880;BME280;61999;51.514;14.614;2023-06-14T00:35:27;100028.06;;;8.80;42.63
15880;BME280;61999;51.514;14.614;2023-06-14T00:37:56;100025.66;;;8.77;42.38
15880;BME280;61999;51.514;14.614;2023-06-14T00:40:24;100030.25;;;8.73;42.42
15880;BME280;61999;51.514;14.614;2023-06-14T00:42:53;100026.28;;;8.67;43.09
15880;BME280;61999;51.514;14.614;2023-06-14T00:45:21;100036.06;;;8.65;43.01
15880;BME280;61999;51.514;14.614;2023-06-14T00:47:50;100027.78;;;8.59;43.67
15880;BME280;61999;51.514;14.614;2023-06-14T00:50:22;100023.59;;;8.56;43.67
15880;BME280;61999;51.514;14.614;2023-06-14T00:52:51;100014.03;;;8.55;43.59
15880;BME280;61999;51.514;14.614;2023-06-14T00:55:20;100011.84;;;8.49;43.59
15880;BME280;61999;51.514;14.614;2023-06-14T00:57:48;100019.59;;;8.51;43.29
15880;BME280;61999;51.514;14.614;2023-06-14T01:00:17;100020.66;;;8.48;43.60
15880;BME280;61999;51.514;14.614;2023-06-14T01:02:45;100011.34;;;8.44;43.05
15880;BME280;61999;51.514;14.614;2023-06-14T01:05:14;100023.22;;;8.37;44.84
15880;BME280;61999;51.514;14.614;2023-06-14T01:07:55;100022.28;;;8.38;44.17
15880;BME280;61999;51.514;14.614;2023-06-14T01:10:40;100016.28;;;8.36;43.82
15880;BME280;61999;51.514;14.614;2023-06-14T01:13:17;100026.28;;;8.31;44.65
15880;BME280;61999;51.514;14.614;2023-06-14T01:15:49;100011.69;;;8.27;44.51
15880;BME280;61999;51.514;14.614;2023-06-14T01:18:18;100020.94;;;8.19;45.62
15880;BME280;61999;51.514;14.614;2023-06-14T01:20:47;100022.63;;;8.20;45.00
15880;BME280;61999;51.514;14.614;2023-06-14T01:23:20;100025.34;;;8.19;44.64
15880;BME280;61999;51.514;14.614;2023-06-14T01:25:49;100025.47;;;8.17;44.18
15880;BME280;61999;51.514;14.614;2023-06-14T01:28:21;100023.06;;;8.14;44.31
15880;BME280;61999;51.514;14.614;2023-06-14T01:30:52;100021.38;;;8.13;44.28
15880;BME280;61999;51.514;14.614;2023-06-14T01:33:26;100023.25;;;8.11;43.88
15880;BME280;61999;51.514;14.614;2023-06-14T01:35:56;100023.47;;;8.08;44.33
15880;BME280;61999;51.514;14.614;2023-06-14T01:38:27;100031.47;;;8.07;44.35
15880;BME280;61999;51.514;14.614;2023-06-14T01:40:58;100023.91;;;8.02;44.36
15880;BME280;61999;51.514;14.614;2023-06-14T01:43:30;100018.13;;;7.97;45.11
15880;BME280;61999;51.514;14.614;2023-06-14T01:46:00;100032.31;;;7.94;45.25
15880;BME280;61999;51.514;14.614;2023-06-14T01:48:29;100026.41;;;7.91;45.13
15880;BME280;61999;51.514;14.614;2023-06-14T01:50:57;100043.22;;;7.88;45.05
15880;BME280;61999;51.514;14.614;2023-06-14T01:53:26;100038.09;;;7.87;45.16
15880;BME280;61999;51.514;14.614;2023-06-14T01:55:54;100035.88;;;7.81;45.79
15880;BME280;61999;51.514;14.614;2023-06-14T01:58:22;100036.06;;;7.77;45.89
15880;BME280;61999;51.514;14.614;2023-06-14T02:00:51;100039.00;;;7.73;46.63
15880;BME280;61999;51.514;14.614;2023-06-14T02:03:22;100029.53;;;7.70;46.27
15880;BME280;61999;51.514;14.614;2023-06-14T02:05:50;100040.03;;;7.70;45.95
15880;BME280;61999;51.514;14.614;2023-06-14T02:08:18;100037.41;;;7.70;45.59
15880;BME280;61999;51.514;14.614;2023-06-14T02:10:47;100041.09;;;7.68;45.63
15880;BME280;61999;51.514;14.614;2023-06-14T02:13:15;100039.63;;;7.64;46.37
15880;BME280;61999;51.514;14.614;2023-06-14T02:15:43;100045.91;;;7.61;45.91
15880;BME280;61999;51.514;14.614;2023-06-14T02:18:12;100043.50;;;7.58;46.07
15880;BME280;61999;51.514;14.614;2023-06-14T02:20:40;100035.00;;;7.54;46.22
15880;BME280;61999;51.514;14.614;2023-06-14T02:23:08;100036.97;;;7.51;46.68
15880;BME280;61999;51.514;14.614;2023-06-14T02:25:36;100047.56;;;7.49;46.28
15880;BME280;61999;51.514;14.614;2023-06-14T02:28:05;100039.72;;;7.49;46.37
15880;BME280;61999;51.514;14.614;2023-06-14T02:30:33;100029.41;;;7.46;46.20
15880;BME280;61999;51.514;14.614;2023-06-14T02:33:01;100033.91;;;7.44;45.96
15880;BME280;61999;51.514;14.614;2023-06-14T02:35:31;100036.66;;;7.43;45.99
15880;BME280;61999;51.514;14.614;2023-06-14T02:37:59;100033.09;;;7.44;46.02
15880;BME280;61999;51.514;14.614;2023-06-14T02:40:27;100034.13;;;7.41;45.75
15880;BME280;61999;51.514;14.614;2023-06-14T02:42:55;100027.31;;;7.39;45.83
15880;BME280;61999;51.514;14.614;2023-06-14T02:45:24;100035.16;;;7.39;45.82
15880;BME280;61999;51.514;14.614;2023-06-14T02:47:52;100023.22;;;7.34;45.93
15880;BME280;61999;51.514;14.614;2023-06-14T02:50:22;100035.59;;;7.32;46.17
15880;BME280;61999;51.514;14.614;2023-06-14T02:52:50;100037.44;;;7.30;45.95
15880;BME280;61999;51.514;14.614;2023-06-14T02:55:19;100045.66;;;7.26;46.73
15880;BME280;61999;51.514;14.614;2023-06-14T02:57:47;100051.94;;;7.23;47.18
15880;BME280;61999;51.514;14.614;2023-06-14T03:00:17;100051.38;;;7.18;47.44
15880;BME280;61999;51.514;14.614;2023-06-14T03:02:47;100052.34;;;7.17;47.78
15880;BME280;61999;51.514;14.614;2023-06-14T03:05:15;100051.47;;;7.17;47.64
15880;BME280;61999;51.514;14.614;2023-06-14T03:07:48;100054.94;;;7.17;47.57
15880;BME280;61999;51.514;14.614;2023-06-14T03:10:17;100052.69;;;7.11;48.86
15880;BME280;61999;51.514;14.614;2023-06-14T03:12:45;100049.16;;;7.12;47.61
15880;BME280;61999;51.514;14.614;2023-06-14T03:15:14;100062.06;;;7.15;47.49
15880;BME280;61999;51.514;14.614;2023-06-14T03:17:42;100059.44;;;7.15;47.75
15880;BME280;61999;51.514;14.614;2023-06-14T03:20:13;100054.19;;;7.15;47.79
15880;BME280;61999;51.514;14.614;2023-06-14T03:22:42;100056.81;;;7.15;47.72
15880;BME280;61999;51.514;14.614;2023-06-14T03:25:12;100063.03;;;7.14;48.09
15880;BME280;61999;51.514;14.614;2023-06-14T03:27:42;100064.69;;;7.15;47.79
15880;BME280;61999;51.514;14.614;2023-06-14T03:30:10;100063.75;;;7.16;47.72
15880;BME280;61999;51.514;14.614;2023-06-14T03:32:39;100072.34;;;7.18;47.94
15880;BME280;61999;51.514;14.614;2023-06-14T03:35:07;100072.34;;;7.18;48.06
15880;BME280;61999;51.514;14.614;2023-06-14T03:37:38;100071.41;;;7.19;48.15
15880;BME280;61999;51.514;14.614;2023-06-14T03:40:06;100068.69;;;7.21;48.36
15880;BME280;61999;51.514;14.614;2023-06-14T03:42:34;100073.94;;;7.21;48.24
15880;BME280;61999;51.514;14.614;2023-06-14T03:45:03;100072.91;;;7.23;48.08
15880;BME280;61999;51.514;14.614;2023-06-14T03:47:32;100074.56;;;7.24;48.53
15880;BME280;61999;51.514;14.614;2023-06-14T03:50:00;100081.50;;;7.25;48.43
15880;BME280;61999;51.514;14.614;2023-06-14T03:52:29;100084.84;;;7.27;48.65
15880;BME280;61999;51.514;14.614;2023-06-14T03:54:59;100084.84;;;7.27;48.94
15880;BME280;61999;51.514;14.614;2023-06-14T03:57:30;100085.59;;;7.29;49.02
15880;BME280;61999;51.514;14.614;2023-06-14T03:59:58;100086.16;;;7.34;48.89
15880;BME280;61999;51.514;14.614;2023-06-14T04:02:26;100090.38;;;7.37;48.69
15880;BME280;61999;51.514;14.614;2023-06-14T04:04:55;100095.50;;;7.39;48.99
15880;BME280;61999;51.514;14.614;2023-06-14T04:07:23;100091.75;;;7.43;48.87
15880;BME280;61999;51.514;14.614;2023-06-14T04:09:51;100096.25;;;7.41;49.21
15880;BME280;61999;51.514;14.614;2023-06-14T04:12:21;100100.03;;;7.49;48.84
15880;BME280;61999;51.514;14.614;2023-06-14T04:14:49;100097.31;;;7.51;48.89
15880;BME280;61999;51.514;14.614;2023-06-14T04:17:17;100093.56;;;7.55;49.14
15880;BME280;61999;51.514;14.614;2023-06-14T04:19:45;100099.53;;;7.57;49.29
15880;BME280;61999;51.514;14.614;2023-06-14T04:22:14;100087.91;;;7.61;49.04
15880;BME280;61999;51.514;14.614;2023-06-14T04:24:42;100107.00;;;7.63;49.46
15880;BME280;61999;51.514;14.614;2023-06-14T04:27:12;100093.47;;;7.69;49.09
15880;BME280;61999;51.514;14.614;2023-06-14T04:29:42;100097.56;;;7.73;49.25
15880;BME280;61999;51.514;14.614;2023-06-14T04:32:11;100095.69;;;7.75;49.44
15880;BME280;61999;51.514;14.614;2023-06-14T04:34:40;100106.75;;;7.81;49.22
15880;BME280;61999;51.514;14.614;2023-06-14T04:37:09;100108.22;;;7.85;49.49
15880;BME280;61999;51.514;14.614;2023-06-14T04:39:38;100107.91;;;7.89;49.34
15880;BME280;61999;51.514;14.614;2023-06-14T04:42:06;100110.00;;;7.84;50.61
15880;BME280;61999;51.514;14.614;2023-06-14T04:44:34;100109.38;;;7.93;49.82
15880;BME280;61999;51.514;14.614;2023-06-14T04:47:05;100105.81;;;7.82;50.98
15880;BME280;61999;51.514;14.614;2023-06-14T04:49:33;100116.97;;;7.98;50.25
15880;BME280;61999;51.514;14.614;2023-06-14T04:52:02;100121.03;;;8.02;49.84
15880;BME280;61999;51.514;14.614;2023-06-14T04:54:36;100121.78;;;8.04;50.01
15880;BME280;61999;51.514;14.614;2023-06-14T04:57:07;100112.75;;;8.08;49.70
15880;BME280;61999;51.514;14.614;2023-06-14T04:59:36;100119.28;;;8.15;49.24
15880;BME280;61999;51.514;14.614;2023-06-14T05:02:08;100119.06;;;8.18;49.85
15880;BME280;61999;51.514;14.614;2023-06-14T05:04:37;100111.91;;;8.08;50.96
15880;BME280;61999;51.514;14.614;2023-06-14T05:07:07;100103.09;;;8.21;50.20
15880;BME280;61999;51.514;14.614;2023-06-14T05:09:36;100104.97;;;8.19;50.38
15880;BME280;61999;51.514;14.614;2023-06-14T05:12:05;100107.91;;;8.28;50.21
15880;BME280;61999;51.514;14.614;2023-06-14T05:14:34;100103.81;;;8.36;49.79
15880;BME280;61999;51.514;14.614;2023-06-14T05:17:03;100095.63;;;8.41;49.41
15880;BME280;61999;51.514;14.614;2023-06-14T05:19:33;100102.47;;;8.43;49.77
15880;BME280;61999;51.514;14.614;2023-06-14T05:22:01;100102.84;;;8.50;49.75
15880;BME280;61999;51.514;14.614;2023-06-14T05:24:29;100094.66;;;8.55;49.77
15880;BME280;61999;51.514;14.614;2023-06-14T05:26:59;100104.34;;;8.54;49.84
15880;BME280;61999;51.514;14.614;2023-06-14T05:29:27;100115.25;;;8.61;49.33
15880;BME280;61999;51.514;14.614;2023-06-14T05:31:56;100113.25;;;8.64;49.98
15880;BME280;61999;51.514;14.614;2023-06-14T05:34:24;100113.53;;;8.73;50.16
15880;BME280;61999;51.514;14.614;2023-06-14T05:36:53;100122.19;;;8.75;50.32
15880;BME280;61999;51.514;14.614;2023-06-14T05:39:22;100126.81;;;8.84;50.14
15880;BME280;61999;51.514;14.614;2023-06-14T05:41:51;100123.00;;;8.88;50.37
15880;BME280;61999;51.514;14.614;2023-06-14T05:44:19;100117.50;;;8.91;50.98
15880;BME280;61999;51.514;14.614;2023-06-14T05:46:47;100133.94;;;8.95;51.27
15880;BME280;61999;51.514;14.614;2023-06-14T05:49:15;100136.63;;;9.06;51.34
15880;BME280;61999;51.514;14.614;2023-06-14T05:51:43;100134.53;;;8.98;52.13
15880;BME280;61999;51.514;14.614;2023-06-14T05:54:12;100130.50;;;9.05;51.95
15880;BME280;61999;51.514;14.614;2023-06-14T05:56:40;100127.31;;;9.26;51.47
15880;BME280;61999;51.514;14.614;2023-06-14T05:59:08;100128.75;;;9.30;51.44
15880;BME280;61999;51.514;14.614;2023-06-14T06:01:36;100136.16;;;9.60;50.37
15880;BME280;61999;51.514;14.614;2023-06-14T06:04:07;100127.50;;;9.71;50.47
15880;BME280;61999;51.514;14.614;2023-06-14T06:06:35;100128.63;;;9.91;49.90
15880;BME280;61999;51.514;14.614;2023-06-14T06:09:03;100131.44;;;10.00;49.76
15880;BME280;61999;51.514;14.614;2023-06-14T06:11:33;100129.78;;;10.22;49.14
15880;BME280;61999;51.514;14.614;2023-06-14T06:14:06;100128.97;;;10.33;48.83
15880;BME280;61999;51.514;14.614;2023-06-14T06:16:34;100135.31;;;10.41;49.17
15880;BME280;61999;51.514;14.614;2023-06-14T06:19:03;100131.38;;;10.47;48.66
15880;BME280;61999;51.514;14.614;2023-06-14T06:21:32;100135.69;;;10.59;48.53
15880;BME280;61999;51.514;14.614;2023-06-14T06:24:00;100133.06;;;10.70;48.12
15880;BME280;61999;51.514;14.614;2023-06-14T06:26:30;100133.16;;;10.80;48.12
15880;BME280;61999;51.514;14.614;2023-06-14T06:29:00;100139.31;;;10.81;48.15
15880;BME280;61999;51.514;14.614;2023-06-14T06:31:28;100141.31;;;10.88;47.64
15880;BME280;61999;51.514;14.614;2023-06-14T06:33:56;100139.16;;;10.93;47.88
15880;BME280;61999;51.514;14.614;2023-06-14T06:36:25;100149.22;;;11.00;47.83
15880;BME280;61999;51.514;14.614;2023-06-14T06:38:53;100153.28;;;11.04;47.60
15880;BME280;61999;51.514;14.614;2023-06-14T06:41:21;100154.22;;;11.14;47.66
15880;BME280;61999;51.514;14.614;2023-06-14T06:43:49;100144.72;;;11.23;47.27
15880;BME280;61999;51.514;14.614;2023-06-14T06:46:19;100140.53;;;11.20;47.11
15880;BME280;61999;51.514;14.614;2023-06-14T06:48:47;100143.16;;;11.20;47.23
15880;BME280;61999;51.514;14.614;2023-06-14T06:51:15;100146.03;;;11.28;47.21
15880;BME280;61999;51.514;14.614;2023-06-14T06:53:43;100155.13;;;11.47;47.09
15880;BME280;61999;51.514;14.614;2023-06-14T06:56:13;100149.81;;;11.58;46.81
15880;BME280;61999;51.514;14.614;2023-06-14T06:58:41;100148.72;;;11.61;46.31
15880;BME280;61999;51.514;14.614;2023-06-14T07:01:09;100159.09;;;11.73;46.11
15880;BME280;61999;51.514;14.614;2023-06-14T07:03:40;100158.34;;;11.82;46.57
15880;BME280;61999;51.514;14.614;2023-06-14T07:06:08;100162.00;;;11.91;46.35
15880;BME280;61999;51.514;14.614;2023-06-14T07:08:36;100164.53;;;11.93;45.84
15880;BME280;61999;51.514;14.614;2023-06-14T07:11:06;100169.25;;;11.57;46.44
15880;BME280;61999;51.514;14.614;2023-06-14T07:13:34;100165.41;;;11.61;46.02
15880;BME280;61999;51.514;14.614;2023-06-14T07:16:05;100175.28;;;11.80;45.70
15880;BME280;61999;51.514;14.614;2023-06-14T07:18:33;100168.78;;;11.84;45.23
15880;BME280;61999;51.514;14.614;2023-06-14T07:21:03;100179.81;;;11.89;45.17
15880;BME280;61999;51.514;14.614;2023-06-14T07:23:31;100177.09;;;12.00;45.37
15880;BME280;61999;51.514;14.614;2023-06-14T07:25:59;100167.56;;;11.56;45.21
15880;BME280;61999;51.514;14.614;2023-06-14T07:28:27;100176.78;;;11.94;44.95
15880;BME280;61999;51.514;14.614;2023-06-14T07:30:56;100179.50;;;12.03;45.14
15880;BME280;61999;51.514;14.614;2023-06-14T07:33:24;100179.63;;;12.02;44.89
15880;BME280;61999;51.514;14.614;2023-06-14T07:35:52;100181.38;;;12.34;44.72
15880;BME280;61999;51.514;14.614;2023-06-14T07:38:22;100176.91;;;12.55;44.00
15880;BME280;61999;51.514;14.614;2023-06-14T07:40:50;100181.13;;;12.67;44.42
15880;BME280;61999;51.514;14.614;2023-06-14T07:43:18;100189.81;;;12.79;44.14
15880;BME280;61999;51.514;14.614;2023-06-14T07:45:47;100186.25;;;12.90;43.97
15880;BME280;61999;51.514;14.614;2023-06-14T07:48:20;100189.09;;;12.98;43.28
15880;BME280;61999;51.514;14.614;2023-06-14T07:50:48;100181.56;;;13.03;43.40
15880;BME280;61999;51.514;14.614;2023-06-14T07:53:16;100181.28;;;13.06;43.68
15880;BME280;61999;51.514;14.614;2023-06-14T07:55:46;100178.53;;;13.08;43.43
15880;BME280;61999;51.514;14.614;2023-06-14T07:58:19;100183.31;;;13.24;43.21
15880;BME280;61999;51.514;14.614;2023-06-14T08:00:48;100183.63;;;13.50;42.59
15880;BME280;61999;51.514;14.614;2023-06-14T08:03:18;100186.72;;;13.74;42.44
15880;BME280;61999;51.514;14.614;2023-06-14T08:05:46;100186.16;;;13.90;42.22
15880;BME280;61999;51.514;14.614;2023-06-14T08:08:15;100187.13;;;13.99;42.17
15880;BME280;61999;51.514;14.614;2023-06-14T08:10:46;100190.03;;;14.25;42.15
15880;BME280;61999;51.514;14.614;2023-06-14T08:13:14;100189.72;;;14.28;41.54
15880;BME280;61999;51.514;14.614;2023-06-14T08:15:42;100198.38;;;14.49;41.48
15880;BME280;61999;51.514;14.614;2023-06-14T08:18:10;100196.81;;;14.37;41.64
15880;BME280;61999;51.514;14.614;2023-06-14T08:20:39;100190.81;;;14.55;41.15
15880;BME280;61999;51.514;14.614;2023-06-14T08:23:07;100190.94;;;14.90;41.27
15880;BME280;61999;51.514;14.614;2023-06-14T08:25:36;100180.91;;;15.12;40.78
15880;BME280;61999;51.514;14.614;2023-06-14T08:28:05;100186.81;;;15.33;40.29
15880;BME280;61999;51.514;14.614;2023-06-14T08:30:33;100177.25;;;15.40;40.14
15880;BME280;61999;51.514;14.614;2023-06-14T08:33:01;100182.94;;;15.63;40.45
15880;BME280;61999;51.514;14.614;2023-06-14T08:35:40;100187.13;;;15.66;39.56
15880;BME280;61999;51.514;14.614;2023-06-14T08:38:10;100193.41;;;15.93;39.64
15880;BME280;61999;51.514;14.614;2023-06-14T08:40:41;100185.75;;;15.98;38.54
15880;BME280;61999;51.514;14.614;2023-06-14T08:43:11;100184.00;;;16.06;38.89
15880;BME280;61999;51.514;14.614;2023-06-14T08:45:39;100183.88;;;16.08;38.66
15880;BME280;61999;51.514;14.614;2023-06-14T08:48:08;100182.72;;;16.37;38.80
15880;BME280;61999;51.514;14.614;2023-06-14T08:50:41;100181.09;;;16.44;37.30
15880;BME280;61999;51.514;14.614;2023-06-14T08:53:13;100177.88;;;16.58;38.03
15880;BME280;61999;51.514;14.614;2023-06-14T08:55:47;100172.00;;;16.81;37.58
15880;BME280;61999;51.514;14.614;2023-06-14T08:58:18;100170.34;;;16.80;36.43
15880;BME280;61999;51.514;14.614;2023-06-14T09:00:46;100190.72;;;16.37;37.89
15880;BME280;61999;51.514;14.614;2023-06-14T09:03:15;100180.72;;;16.57;37.36
15880;BME280;61999;51.514;14.614;2023-06-14T09:05:44;100181.22;;;16.60;36.01
15880;BME280;61999;51.514;14.614;2023-06-14T09:08:12;100176.63;;;16.18;37.33
15880;BME280;61999;51.514;14.614;2023-06-14T09:10:41;100189.56;;;16.13;37.43
15880;BME280;61999;51.514;14.614;2023-06-14T09:13:09;100187.28;;;16.18;37.34
15880;BME280;61999;51.514;14.614;2023-06-14T09:15:38;100191.72;;;15.92;37.55
15880;BME280;61999;51.514;14.614;2023-06-14T09:18:07;100191.09;;;15.62;38.23
15880;BME280;61999;51.514;14.614;2023-06-14T09:20:35;100185.50;;;15.83;37.53
15880;BME280;61999;51.514;14.614;2023-06-14T09:23:04;100178.41;;;15.92;38.05
15880;BME280;61999;51.514;14.614;2023-06-14T09:25:42;100182.53;;;16.12;38.17
15880;BME280;61999;51.514;14.614;2023-06-14T09:28:10;100180.88;;;16.11;37.67
15880;BME280;61999;51.514;14.614;2023-06-14T09:30:40;100186.13;;;16.47;37.55
15880;BME280;61999;51.514;14.614;2023-06-14T09:33:08;100181.53;;;16.57;37.41
15880;BME280;61999;51.514;14.614;2023-06-14T09:35:36;100182.56;;;16.38;37.00
15880;BME280;61999;51.514;14.614;2023-06-14T09:38:04;100184.97;;;16.23;35.31
15880;BME280;61999;51.514;14.614;2023-06-14T09:40:35;100188.19;;;16.87;35.98
15880;BME280;61999;51.514;14.614;2023-06-14T09:43:08;100178.97;;;17.24;34.40
15880;BME280;61999;51.514;14.614;2023-06-14T09:45:44;100192.03;;;16.93;33.90
15880;BME280;61999;51.514;14.614;2023-06-14T09:48:20;100187.31;;;17.21;34.18
15880;BME280;61999;51.514;14.614;2023-06-14T09:50:52;100191.97;;;17.19;33.43
15880;BME280;61999;51.514;14.614;2023-06-14T09:53:27;100192.72;;;17.03;34.62
15880;BME280;61999;51.514;14.614;2023-06-14T09:55:59;100191.44;;;17.15;34.31
15880;BME280;61999;51.514;14.614;2023-06-14T09:58:37;100198.75;;;17.13;34.27
15880;BME280;61999;51.514;14.614;2023-06-14T10:01:10;100198.84;;;16.95;33.45
15880;BME280;61999;51.514;14.614;2023-06-14T10:03:46;100199.66;;;16.88;34.52
15880;BME280;61999;51.514;14.614;2023-06-14T10:06:31;100201.56;;;16.69;34.02
15880;BME280;61999;51.514;14.614;2023-06-14T10:09:10;100193.28;;;16.81;34.52
15880;BME280;61999;51.514;14.614;2023-06-14T10:11:44;100191.63;;;16.80;33.91
15880;BME280;61999;51.514;14.614;2023-06-14T10:14:23;100199.16;;;16.84;34.32
15880;BME280;61999;51.514;14.614;2023-06-14T10:17:06;100199.25;;;16.74;34.09
15880;BME280;61999;51.514;14.614;2023-06-14T10:19:42;100197.97;;;16.87;34.77
15880;BME280;61999;51.514;14.614;2023-06-14T10:22:18;100192.59;;;16.70;34.37
15880;BME280;61999;51.514;14.614;2023-06-14T10:24:52;100196.28;;;16.25;34.80
15880;BME280;61999;51.514;14.614;2023-06-14T10:27:20;100199.06;;;16.42;35.35
15880;BME280;61999;51.514;14.614;2023-06-14T10:30:08;100192.03;;;16.59;35.34
15880;BME280;61999;51.514;14.614;2023-06-14T10:33:04;100202.47;;;16.52;34.96
15880;BME280;61999;51.514;14.614;2023-06-14T10:35:33;100202.94;;;16.73;35.14
15880;BME280;61999;51.514;14.614;2023-06-14T10:38:08;100201.91;;;16.74;35.84
15880;BME280;61999;51.514;14.614;2023-06-14T10:40:37;100210.41;;;16.78;34.90
15880;BME280;61999;51.514;14.614;2023-06-14T10:43:24;100199.16;;;16.58;35.41
15880;BME280;61999;51.514;14.614;2023-06-14T10:46:15;100202.94;;;16.73;35.23
15880;BME280;61999;51.514;14.614;2023-06-14T10:48:47;100201.00;;;16.92;35.13
15880;BME280;61999;51.514;14.614;2023-06-14T10:51:17;100198.63;;;16.28;35.97
15880;BME280;61999;51.514;14.614;2023-06-14T10:53:51;100206.28;;;16.76;35.99
15880;BME280;61999;51.514;14.614;2023-06-14T10:56:29;100199.34;;;16.91;35.60
15880;BME280;61999;51.514;14.614;2023-06-14T10:59:00;100196.75;;;17.07;35.21
15880;BME280;61999;51.514;14.614;2023-06-14T11:01:47;100205.03;;;16.96;34.68
15880;BME280;61999;51.514;14.614;2023-06-14T11:04:49;100200.41;;;17.14;34.38
15880;BME280;61999;51.514;14.614;2023-06-14T11:07:42;100205.75;;;17.14;34.70
15880;BME280;61999;51.514;14.614;2023-06-14T11:10:33;100194.41;;;17.04;35.05
15880;BME280;61999;51.514;14.614;2023-06-14T11:13:04;100197.25;;;17.11;35.16
15880;BME280;61999;51.514;14.614;2023-06-14T11:15:33;100190.41;;;17.08;34.84
15880;BME280;61999;51.514;14.614;2023-06-14T11:18:05;100190.38;;;17.43;34.63
15880;BME280;61999;51.514;14.614;2023-06-14T11:20:36;100181.88;;;17.55;34.04
15880;BME280;61999;51.514;14.614;2023-06-14T11:23:04;100183.75;;;18.45;33.88
15880;BME280;61999;51.514;14.614;2023-06-14T11:25:33;100174.41;;;19.51;32.39
15880;BME280;61999;51.514;14.614;2023-06-14T11:28:03;100170.13;;;20.85;31.84
15880;BME280;61999;51.514;14.614;2023-06-14T11:30:37;100173.66;;;21.79;29.58
15880;BME280;61999;51.514;14.614;2023-06-14T11:33:10;100172.84;;;22.35;28.56
15880;BME280;61999;51.514;14.614;2023-06-14T11:35:44;100163.03;;;23.72;26.06
15880;BME280;61999;51.514;14.614;2023-06-14T11:38:15;100172.66;;;24.72;26.45
15880;BME280;61999;51.514;14.614;2023-06-14T11:40:45;100166.97;;;25.32;25.69
15880;BME280;61999;51.514;14.614;2023-06-14T11:43:16;100161.53;;;26.21;23.30
15880;BME280;61999;51.514;14.614;2023-06-14T11:45:54;100164.56;;;26.68;22.69
15880;BME280;61999;51.514;14.614;2023-06-14T11:48:37;100152.66;;;26.50;20.08
15880;BME280;61999;51.514;14.614;2023-06-14T11:51:12;100150.72;;;26.39;21.13
15880;BME280;61999;51.514;14.614;2023-06-14T11:53:43;100149.31;;;27.46;21.31
15880;BME280;61999;51.514;14.614;2023-06-14T11:56:15;100157.53;;;28.51;21.16
15880;BME280;61999;51.514;14.614;2023-06-14T11:58:47;100141.66;;;27.96;18.78
15880;BME280;61999;51.514;14.614;2023-06-14T12:01:19;100142.44;;;28.56;19.15
15880;BME280;61999;51.514;14.614;2023-06-14T12:03:54;100145.41;;;29.91;17.49
15880;BME280;61999;51.514;14.614;2023-06-14T12:06:31;100133.22;;;30.76;17.27
15880;BME280;61999;51.514;14.614;2023-06-14T12:09:09;100132.63;;;31.23;15.72
15880;BME280;61999;51.514;14.614;2023-06-14T12:11:41;100132.91;;;31.54;16.30
15880;BME280;61999;51.514;14.614;2023-06-14T12:14:10;100131.50;;;31.89;16.27
15880;BME280;61999;51.514;14.614;2023-06-14T12:16:43;100134.00;;;32.43;16.43
15880;BME280;61999;51.514;14.614;2023-06-14T12:19:17;100135.28;;;33.08;14.79
15880;BME280;61999;51.514;14.614;2023-06-14T12:21:50;100127.09;;;32.93;15.47
15880;BME280;61999;51.514;14.614;2023-06-14T12:24:19;100128.97;;;32.19;15.67
15880;BME280;61999;51.514;14.614;2023-06-14T12:26:52;100136.34;;;32.87;15.11
15880;BME280;61999;51.514;14.614;2023-06-14T12:29:22;100130.94;;;33.58;12.95
15880;BME280;61999;51.514;14.614;2023-06-14T12:31:55;100115.34;;;34.60;13.96
15880;BME280;61999;51.514;14.614;2023-06-14T12:34:31;100099.72;;;35.05;13.54
15880;BME280;61999;51.514;14.614;2023-06-14T12:37:16;100108.63;;;34.86;13.14
15880;BME280;61999;51.514;14.614;2023-06-14T12:39:47;100098.38;;;35.66;13.46
15880;BME280;61999;51.514;14.614;2023-06-14T12:42:20;100098.16;;;35.62;12.23
15880;BME280;61999;51.514;14.614;2023-06-14T12:44:52;100098.03;;;35.72;11.02
15880;BME280;61999;51.514;14.614;2023-06-14T12:47:22;100085.13;;;35.14;12.06
15880;BME280;61999;51.514;14.614;2023-06-14T12:49:51;100091.16;;;35.16;12.36
15880;BME280;61999;51.514;14.614;2023-06-14T12:52:22;100084.19;;;34.45;11.62
15880;BME280;61999;51.514;14.614;2023-06-14T12:54:52;100091.56;;;34.94;12.37
15880;BME280;61999;51.514;14.614;2023-06-14T12:57:29;100094.81;;;35.65;11.78
15880;BME280;61999;51.514;14.614;2023-06-14T13:00:05;100092.09;;;34.52;12.52
15880;BME280;61999;51.514;14.614;2023-06-14T13:02:37;100088.34;;;36.04;11.49